메인 페이지
METAR-TAF:

METAR-TAF

공항 :

망갈로르, 인도

위도: 12-55N, 경도: 074-53E, 고도: 102m

현재 날씨관측

예보는 33분 전, 14:00시(UTC)에 발표되었습니다.
3kt
온도 27°C
습도 84%
기압 1012 hPa
시정: 6000m
고도 1200ft 상공 구름 조금
고도 2500ft 상공 구름 조금, 적란운.

METAR: VOML 191400Z 36003KT 6000 FEW012 FEW025CB 27/24 Q1012 NOSIG

시각: 20:03 (14:33 UTC)

예보

예보는 3 시간 33분 전, 11:00시(UTC)에 발표되었습니다.
예보 대상 시간: 19일 12시부터 20일 18시까지 (UTC)
남서10kt
시정: 6000m
고도 1500ft 상공 구름 보통
일시적
19일 12시부터 19일 15시까지 (UTC)
고도 1500ft 상공 구름 보통
고도 2000ft 상공 구름 보통
고도 2500ft 상공 구름 조금, 적란운.
전환 중
19일 16시부터 19일 17시까지 (UTC)
여러 방향의 바람 2kt
전환 중
19일 21시부터 19일 22시까지 (UTC)
시정: 4000m
고도 800ft 상공 구름 보통
박무
일시적
20일 00시부터 20일 03시까지 (UTC)
시정: 1500m
고도 500ft 상공 구름 보통
박무
전환 중
20일 03시부터 20일 04시까지 (UTC)
시정: 6000m
고도 1500ft 상공 구름 보통
전환 중
20일 08시부터 20일 09시까지 (UTC)
10kt

TAF: VOML 191100Z 1912/2018 23010KT 6000 SCT015 TEMPO 1912/1915 Z SCT015 SCT020 FEW025CB BECMG 1916/1917 VRB02KT BECMG 1921/1922 4000 BR SCT008 TEMPO 2000/2003 1500 BR SCT005 BECMG 2003/2004 6000 SCT015 BECMG 2008/2009 27010KT

4,000개 이상의 공항 관측 자료 및 예보 (METAR 및 TAF 보고).

지도상에서 검색 가능한 기상관측소가 노란 점과 빨간 점으로 표시되어 있습니다.

기상관측소 명을 보려면 표시 위로 마우스를 이동하세요.

날씨 관측과 예보를 보려면 클릭하세요.

지도 변경 : 확대하려면 엑스 표시가 있는 녹색 버튼, 축소하려면 빼기 표시가 있는 녹색 버튼, 다음 페이지의 지도를 보려면 녹색 화살표를 클릭하세요.


METAR-TAF: